Redwood City, CA (94065)

8:36 AM PDT on April 27, 2015 (GMT -0700)
Lauriedale | | Change Station
CLOSE
Current Station
Personal Weather Station
Location: San Mateo, CA
Elevation: 30 ft
Nearby Weather Stations

Elev 30 ft 37.53 °N, 122.29 °W | Updated 23 seconds ago

Partly Cloudy
Partly Cloudy
57.8 °F
Feels Like 57.8 °F
N
0.0
Wind Variable Wind from ENE
Gusts 1.6 mph

Today
High -- | Low -- °F
--% Chance of Precip.
Yesterday
High -- | Low -- °F
Precip. -- in
6:18 AM 7:55 PM
Waxing Gibbous, 65% visible
Pressure 30.05 in
Visibility 10.0 miles
Clouds Few 18000 ft
Dew Point 52 °F
Humidity 82%
Rainfall 0.00 in
Snow Depth Not available.
UV 1 out of 12
Pollen 8.10 out of 12
Air Quality Not available.
Flu Activity Sporadic
METAR KSQL 271447Z 00000KT 10SM FEW180 14/10 A3005

More Conditions Fewer Conditions

Pressure 30.05 in
Visibility 10.0 miles
Clouds Few 18000 ft
Dew Point 52 °F
Humidity 82%
Rainfall 0.00 in
Snow Depth Not available.
UV 1 out of 12
Pollen 8.10 out of 12
Air Quality Not available.
Flu Activity Sporadic
METAR KSQL 271447Z 00000KT 10SM FEW180 14/10 A3005

More Conditions Fewer Conditions

10-Day Weather Forecast

Almanac

Astronomy

Apr. 27, 2015 Rise Set
Actual Time
Civil Twilight
Nautical Twilight
Astronomical Twilight
Moon
Length of Visible Light
Length of Day
Tomorrow will be .
, % of the Moon is Illuminated

Today's Extremes

State Highs State Lows

Community

WunderPhotos

Upload Photos

1,817,327 photos uploaded!

WunderBlogs® & News

Nearby

Air Quality

  Air Quality AQ Index Pollutant
Not available.

Snow Depth

Station Depth Elevation

Earthquake Activity

City Distance Mag. Time & Date
Minimum magnitude displayed is 2.5.

Coastal Water Temperatures

Place Temperature

Stations

Nearby Weather Stations

Station Location Temp. Windchill Dew Point Humidity Wind Precip. Elev Updated Type